Wellborn, Florida
Current Conditions -  °F | °C
As of 9:15 PM on Saturday 22 Nov 2014 (Local Time) from K24J Reporting Station
Overcast Overcast  
Wind Chill: 64°   Ceiling: 600
Heat Index: 64°   Visibility: 8mi
Dew Point: 64°   Wind: 7mph
Humidity: 100%   Direction: 80°E
Pressure: 30.16"   Gusts: NA
Location:  30.23°N, 82.82°W
Report Text: K24J 230215Z AUTO 08006KT 8SM BKN006 OVC038 18/18 A3016 RMK AO1
Loading
Personal Weather Stations






























Interactive Weather Map New forecast layout! Learn more

10-Day Weather Forecast

Advertisements
Track Severe Weather on mobile